createdAt,value
2023-04-18T00:00:58.918Z,100357.96
2023-04-18T00:03:10.496Z,100355.91
2023-04-18T00:05:23.784Z,100358.14
2023-04-18T00:07:40.260Z,100355.13
2023-04-18T00:09:51.419Z,100352.63
2023-04-18T00:12:04.885Z,100349.48
2023-04-18T00:14:19.759Z,100344.63
2023-04-18T00:16:30.882Z,100343.74
2023-04-18T00:18:41.936Z,100346.85
2023-04-18T00:20:53.223Z,100340.19
2023-04-18T00:23:04.928Z,100329.77
2023-04-18T00:25:16.496Z,100330.75
2023-04-18T00:27:27.830Z,100327.99
2023-04-18T00:29:38.649Z,100332.39
2023-04-18T00:31:49.618Z,100316.80
2023-04-18T00:34:01.204Z,100324.63
2023-04-18T00:36:13.538Z,100322.77
2023-04-18T00:38:25.868Z,100319.01
2023-04-18T00:40:37.540Z,100320.14
2023-04-18T00:42:48.660Z,100320.41
2023-04-18T00:44:59.296Z,100318.27
2023-04-18T00:47:10.127Z,100323.00
2023-04-18T00:49:21.033Z,100327.71
2023-04-18T00:51:31.887Z,100336.73
2023-04-18T00:53:43.295Z,100338.48
2023-04-18T00:55:55.142Z,100337.91
2023-04-18T00:58:07.264Z,100333.27
2023-04-18T01:00:19.499Z,100331.96
2023-04-18T01:02:31.137Z,100327.70
2023-04-18T01:04:44.507Z,100329.73
2023-04-18T01:06:55.306Z,100327.79
2023-04-18T01:09:06.846Z,100324.78
2023-04-18T01:11:18.257Z,100318.54
2023-04-18T01:13:30.837Z,100322.48
2023-04-18T01:15:41.802Z,100315.37
2023-04-18T01:17:53.003Z,100308.08
2023-04-18T01:20:06.420Z,100302.27
2023-04-18T01:22:19.661Z,100298.05
2023-04-18T01:24:32.579Z,100285.27
2023-04-18T01:26:41.066Z,100278.95
2023-04-18T01:28:51.978Z,100274.91
2023-04-18T01:31:03.075Z,100278.27
2023-04-18T01:33:14.238Z,100283.42
2023-04-18T01:35:25.255Z,100285.63
2023-04-18T01:37:38.835Z,100296.18
2023-04-18T01:39:50.807Z,100296.77
2023-04-18T01:42:03.479Z,100295.32
2023-04-18T01:44:14.995Z,100295.44
2023-04-18T01:46:26.204Z,100289.76
2023-04-18T01:48:38.463Z,100284.63
2023-04-18T01:50:49.926Z,100288.89
2023-04-18T01:53:01.474Z,100287.30
2023-04-18T01:55:13.790Z,100280.81
2023-04-18T01:57:25.051Z,100279.02
2023-04-18T01:59:36.377Z,100279.40
2023-04-18T02:01:47.167Z,100285.52
2023-04-18T02:03:58.240Z,100281.55
2023-04-18T02:06:11.006Z,100282.34
2023-04-18T02:08:21.974Z,100275.15
2023-04-18T02:10:35.427Z,100274.21
2023-04-18T02:12:46.303Z,100279.84
2023-04-18T02:14:58.103Z,100272.64
2023-04-18T02:17:09.639Z,100266.65
2023-04-18T02:19:20.438Z,100260.29
2023-04-18T02:21:31.671Z,100264.22
2023-04-18T02:23:42.838Z,100264.02
2023-04-18T02:25:54.117Z,100268.58
2023-04-18T02:28:05.139Z,100267.70
2023-04-18T02:30:16.981Z,100259.96
2023-04-18T02:32:30.106Z,100266.51
2023-04-18T02:34:43.573Z,100264.87
2023-04-18T02:36:54.769Z,100263.08
2023-04-18T02:39:09.169Z,100257.34
2023-04-18T02:41:22.238Z,100252.67
2023-04-18T02:43:33.558Z,100245.98
2023-04-18T02:45:43.836Z,100239.84
2023-04-18T02:47:56.968Z,100236.73
2023-04-18T02:50:09.390Z,100229.70
2023-04-18T02:52:20.450Z,100229.05
2023-04-18T02:54:31.409Z,100225.27
2023-04-18T02:56:51.518Z,100231.52
2023-04-18T02:59:22.143Z,100236.13
2023-04-18T03:02:01.241Z,100235.27
2023-04-18T03:04:13.800Z,100238.45
2023-04-18T03:06:37.304Z,100233.42
2023-04-18T03:08:49.613Z,100231.43
2023-04-18T03:11:00.241Z,100235.52
2023-04-18T03:13:11.102Z,100258.11
2023-04-18T03:15:22.153Z,100245.33
2023-04-18T03:17:32.498Z,100246.95
2023-04-18T03:19:43.190Z,100243.86
2023-04-18T03:21:53.217Z,100237.30
2023-04-18T03:24:03.222Z,100233.85
2023-04-18T03:26:14.437Z,100228.58
2023-04-18T03:28:24.773Z,100233.81
2023-04-18T03:30:34.503Z,100226.14
2023-04-18T03:32:44.722Z,100223.17
2023-04-18T03:34:55.852Z,100209.11
2023-04-18T03:37:05.978Z,100202.95
2023-04-18T03:39:23.270Z,100196.47
2023-04-18T03:41:47.135Z,100210.74
2023-04-18T03:43:57.203Z,100212.23
2023-04-18T03:46:07.937Z,100221.73
2023-04-18T03:48:18.768Z,100223.54
2023-04-18T03:50:35.812Z,100214.33
2023-04-18T03:52:48.799Z,100229.31
2023-04-18T03:54:59.697Z,100229.42
2023-04-18T03:57:22.278Z,100249.10
2023-04-18T03:59:32.904Z,100239.58
2023-04-18T04:01:43.287Z,100236.20
2023-04-18T04:03:57.356Z,100245.41
2023-04-18T04:06:15.000Z,100255.89
2023-04-18T04:08:28.255Z,100263.48
2023-04-18T04:10:39.558Z,100267.11
2023-04-18T04:12:49.408Z,100269.91
2023-04-18T04:15:01.417Z,100268.64
2023-04-18T04:17:12.256Z,100272.14
2023-04-18T04:19:22.081Z,100266.14
2023-04-18T04:21:43.212Z,100261.42
2023-04-18T04:23:55.115Z,100268.52
2023-04-18T04:26:28.805Z,100262.30
2023-04-18T04:28:49.816Z,100257.15
2023-04-18T04:31:02.852Z,100274.54
2023-04-18T04:33:12.765Z,100277.54
2023-04-18T04:35:23.026Z,100293.14
2023-04-18T04:37:39.432Z,100298.90
2023-04-18T04:40:01.241Z,100305.88
2023-04-18T04:42:30.643Z,100302.42
2023-04-18T04:44:47.250Z,100309.41
2023-04-18T04:47:08.281Z,100306.48
2023-04-18T04:49:17.029Z,100309.93
2023-04-18T04:51:29.459Z,100312.59
2023-04-18T04:53:39.732Z,100320.91
2023-04-18T04:55:50.388Z,100338.86
2023-04-18T04:58:10.862Z,100339.45
2023-04-18T05:00:41.593Z,100328.27
2023-04-18T05:02:55.366Z,100327.42
2023-04-18T05:05:17.945Z,100336.88
2023-04-18T05:07:34.042Z,100335.57
2023-04-18T05:09:58.345Z,100331.48
2023-04-18T05:12:12.673Z,100334.61
2023-04-18T05:14:26.651Z,100332.59
2023-04-18T05:16:38.096Z,100331.23
2023-04-18T05:18:48.376Z,100337.09
2023-04-18T05:21:12.064Z,100334.74
2023-04-18T05:23:41.859Z,100339.47
2023-04-18T05:25:51.811Z,100341.05
2023-04-18T05:28:14.594Z,100341.85
2023-04-18T05:30:35.444Z,100352.09
2023-04-18T05:32:59.243Z,100349.33
2023-04-18T05:35:10.632Z,100343.35
2023-04-18T05:37:33.587Z,100349.98
2023-04-18T05:39:50.410Z,100354.55
2023-04-18T05:42:22.117Z,100350.84
2023-04-18T05:44:37.471Z,100350.98
2023-04-18T05:46:47.375Z,100359.43
2023-04-18T05:48:57.715Z,100361.88
2023-04-18T05:51:09.479Z,100363.36
2023-04-18T05:53:21.959Z,100366.00
2023-04-18T05:55:31.740Z,100370.63
2023-04-18T05:57:42.701Z,100381.67
2023-04-18T05:59:53.783Z,100380.14
2023-04-18T06:02:04.371Z,100384.42
2023-04-18T06:04:15.059Z,100387.24
2023-04-18T06:06:25.375Z,100384.98
2023-04-18T06:08:35.188Z,100379.64
2023-04-18T06:10:45.054Z,100368.63
2023-04-18T06:12:54.874Z,100368.80
2023-04-18T06:15:06.161Z,100376.29
2023-04-18T06:17:16.833Z,100385.45
2023-04-18T06:19:26.863Z,100398.83
2023-04-18T06:21:36.834Z,100402.63
2023-04-18T06:23:46.473Z,100397.46
2023-04-18T06:25:56.434Z,100402.63
2023-04-18T06:28:06.275Z,100402.88
2023-04-18T06:30:17.487Z,100397.39
2023-04-18T06:32:27.288Z,100405.02
2023-04-18T06:34:38.656Z,100403.44
2023-04-18T06:36:48.656Z,100402.89
2023-04-18T06:38:58.454Z,100408.34
2023-04-18T06:41:09.081Z,100409.80
2023-04-18T06:43:19.041Z,100409.20
2023-04-18T06:45:29.274Z,100412.85
2023-04-18T06:47:39.910Z,100414.82
2023-04-18T06:49:49.769Z,100418.48
2023-04-18T06:51:59.415Z,100422.55
2023-04-18T06:54:09.283Z,100427.63
2023-04-18T06:56:19.229Z,100424.20
2023-04-18T06:58:28.857Z,100429.58
2023-04-18T07:00:39.036Z,100425.52
2023-04-18T07:02:49.890Z,100436.84
2023-04-18T07:04:59.709Z,100454.70
2023-04-18T07:07:09.560Z,100457.54
2023-04-18T07:09:19.706Z,100458.11
2023-04-18T07:11:30.183Z,100460.50
2023-04-18T07:13:40.272Z,100464.09
2023-04-18T07:15:50.807Z,100461.78
2023-04-18T07:18:00.671Z,100462.49
2023-04-18T07:20:14.229Z,100459.72
2023-04-18T07:22:24.211Z,100477.20
2023-04-18T07:24:34.487Z,100475.92
2023-04-18T07:26:44.350Z,100471.19
2023-04-18T07:28:54.135Z,100476.72
2023-04-18T07:31:05.016Z,100477.73
2023-04-18T07:33:16.098Z,100484.39
2023-04-18T07:35:25.814Z,100498.70
2023-04-18T07:37:36.062Z,100505.02
2023-04-18T07:39:45.982Z,100505.04
2023-04-18T07:41:56.311Z,100507.45
2023-04-18T07:44:07.139Z,100509.41
2023-04-18T07:46:16.993Z,100513.01
2023-04-18T07:48:27.314Z,100516.74
2023-04-18T07:50:38.122Z,100516.28
2023-04-18T07:52:48.980Z,100516.26
2023-04-18T07:54:58.773Z,100518.56
2023-04-18T07:57:08.741Z,100518.43
2023-04-18T07:59:18.632Z,100536.06
2023-04-18T08:01:28.357Z,100543.66
2023-04-18T08:03:38.708Z,100546.61
2023-04-18T08:05:49.543Z,100541.64
2023-04-18T08:07:59.392Z,100539.73
2023-04-18T08:10:10.489Z,100547.58
2023-04-18T08:12:20.148Z,100554.66
2023-04-18T08:14:29.701Z,100554.71
2023-04-18T08:16:39.706Z,100557.45
2023-04-18T08:18:49.551Z,100563.20
2023-04-18T08:20:59.604Z,100564.94
2023-04-18T08:23:12.102Z,100565.08
2023-04-18T08:25:23.563Z,100570.30
2023-04-18T08:27:33.991Z,100579.17
2023-04-18T08:29:44.483Z,100580.73
2023-04-18T08:31:54.627Z,100581.24
2023-04-18T08:34:05.190Z,100585.10
2023-04-18T08:36:16.888Z,100585.44
2023-04-18T08:38:26.480Z,100582.52
2023-04-18T08:40:36.463Z,100584.98
2023-04-18T08:42:47.652Z,100582.27
2023-04-18T08:44:58.579Z,100583.17
2023-04-18T08:47:09.857Z,100583.41
2023-04-18T08:49:22.078Z,100583.53
2023-04-18T09:02:45.860Z,100597.84
2023-04-18T09:05:22.796Z,100614.36
2023-04-18T09:07:58.249Z,100618.89
2023-04-18T09:10:37.688Z,100629.27
2023-04-18T09:13:11.147Z,100624.38
2023-04-18T09:15:46.708Z,100626.16
2023-04-18T09:18:20.337Z,100629.45
2023-04-18T09:20:56.147Z,100633.13
2023-04-18T09:23:30.189Z,100638.83
2023-04-18T09:26:08.740Z,100641.08
2023-04-18T09:28:43.550Z,100641.50
2023-04-18T09:31:17.220Z,100640.77
2023-04-18T09:33:58.130Z,100639.00
2023-04-18T09:36:35.607Z,100643.83
2023-04-18T09:39:09.159Z,100646.50
2023-04-18T09:41:43.181Z,100644.71
2023-04-18T09:44:18.810Z,100643.89
2023-04-18T09:46:54.426Z,100639.91
2023-04-18T09:49:29.044Z,100636.09
2023-04-18T09:52:02.683Z,100636.65
2023-04-18T09:54:41.860Z,100642.67
2023-04-18T09:57:18.454Z,100635.16
2023-04-18T09:59:58.650Z,100634.55
2023-04-18T10:02:38.294Z,100646.94
2023-04-18T10:05:13.852Z,100649.64
2023-04-18T10:07:49.588Z,100654.84
2023-04-18T10:10:23.713Z,100664.15
2023-04-18T10:13:05.079Z,100670.77
2023-04-18T10:15:40.372Z,100670.30
2023-04-18T10:18:18.388Z,100675.20
2023-04-18T10:20:52.828Z,100677.20
2023-04-18T10:23:53.641Z,100680.27
2023-04-18T10:26:48.201Z,100680.89
2023-04-18T10:29:28.612Z,100686.11
2023-04-18T10:32:09.558Z,100690.21
2023-04-18T10:34:44.605Z,100691.11
2023-04-18T10:37:20.047Z,100690.20
2023-04-18T10:40:07.966Z,100698.52
2023-04-18T10:43:08.121Z,100704.04
2023-04-18T10:45:43.748Z,100711.72
2023-04-18T10:48:33.760Z,100713.71
2023-04-18T10:51:22.004Z,100720.84
2023-04-18T10:54:01.663Z,100717.75
2023-04-18T10:56:36.911Z,100725.64
2023-04-18T10:59:13.881Z,100724.17
2023-04-18T11:01:40.561Z,100726.11
2023-04-18T11:04:20.503Z,100725.08
2023-04-18T11:06:58.763Z,100726.56
2023-04-18T11:09:33.011Z,100725.69
2023-04-18T11:12:14.569Z,100721.36
2023-04-18T11:14:51.172Z,100723.54
2023-04-18T11:17:26.762Z,100737.00
2023-04-18T11:20:10.278Z,100737.70
2023-04-18T11:22:55.109Z,100739.97
2023-04-18T11:25:33.016Z,100750.63
2023-04-18T11:28:08.123Z,100767.30
2023-04-18T11:30:45.925Z,100763.77
2023-04-18T11:33:21.201Z,100769.64
2023-04-18T11:36:00.411Z,100771.20
2023-04-18T11:38:37.673Z,100780.70
2023-04-18T11:41:15.372Z,100780.52
2023-04-18T11:43:51.962Z,100774.37
2023-04-18T11:46:26.927Z,100771.74
2023-04-18T11:49:01.949Z,100774.79
2023-04-18T11:51:47.304Z,100780.27
2023-04-18T11:54:43.329Z,100778.79
2023-04-18T11:57:29.314Z,100778.09
2023-04-18T12:00:03.941Z,100781.81
2023-04-18T12:02:46.757Z,100784.52
2023-04-18T12:05:31.278Z,100788.00
2023-04-18T12:08:12.492Z,100784.63
2023-04-18T12:10:52.062Z,100789.40
2023-04-18T12:13:34.561Z,100788.02
2023-04-18T12:16:09.852Z,100784.19
2023-04-18T12:18:44.959Z,100783.31
2023-04-18T12:21:19.731Z,100782.94
2023-04-18T12:23:59.714Z,100782.91
2023-04-18T12:26:34.226Z,100780.08
2023-04-18T12:29:08.011Z,100778.05
2023-04-18T12:31:43.293Z,100776.52
2023-04-18T12:34:18.348Z,100773.58
2023-04-18T12:36:53.443Z,100776.48
2023-04-18T12:39:27.158Z,100775.80
2023-04-18T12:42:03.509Z,100778.79
2023-04-18T12:44:38.245Z,100771.79
2023-04-18T12:47:12.065Z,100779.31
2023-04-18T12:49:45.965Z,100778.64
2023-04-18T12:52:19.237Z,100781.45
2023-04-18T12:54:53.856Z,100789.52
2023-04-18T12:57:31.659Z,100789.36
2023-04-18T13:00:07.760Z,100786.08
2023-04-18T13:02:42.558Z,100790.19
2023-04-18T13:05:19.768Z,100790.14
2023-04-18T13:08:08.511Z,100797.84
2023-04-18T13:10:51.284Z,100804.54
2023-04-18T13:13:25.262Z,100809.24
2023-04-18T13:15:51.712Z,100816.13
2023-04-18T13:18:26.891Z,100816.21
2023-04-18T13:21:01.105Z,100811.67
2023-04-18T13:23:37.650Z,100814.72
2023-04-18T13:26:11.596Z,100824.52
2023-04-18T13:28:46.564Z,100821.14
2023-04-18T13:31:21.674Z,100818.09
2023-04-18T13:33:56.988Z,100822.48
2023-04-18T13:36:32.751Z,100835.03
2023-04-18T13:39:08.078Z,100843.98
2023-04-18T13:41:41.864Z,100845.09
2023-04-18T13:44:17.763Z,100854.15
2023-04-18T13:46:53.139Z,100861.87
2023-04-18T13:49:27.551Z,100861.25
2023-04-18T13:52:02.243Z,100867.19
2023-04-18T13:54:38.141Z,100872.39
2023-04-18T13:57:14.658Z,100874.91
2023-04-18T13:59:52.666Z,100880.88
2023-04-18T14:02:27.338Z,100888.25
2023-04-18T14:05:02.200Z,100886.48
2023-04-18T14:07:36.276Z,100875.90
2023-04-18T14:10:12.352Z,100868.16
2023-04-18T14:12:46.918Z,100870.88
2023-04-18T14:15:21.244Z,100870.38
2023-04-18T14:17:55.484Z,100874.91
2023-04-18T14:20:35.482Z,100871.27
2023-04-18T14:23:11.465Z,100868.52
2023-04-18T14:25:46.349Z,100862.57
2023-04-18T14:28:23.162Z,100869.81
2023-04-18T14:30:58.908Z,100872.30
2023-04-18T14:33:33.252Z,100868.38
2023-04-18T14:36:12.360Z,100863.17
2023-04-18T14:38:46.112Z,100857.91
2023-04-18T14:41:19.887Z,100860.02
2023-04-18T14:43:55.172Z,100866.06
2023-04-18T14:46:30.415Z,100865.20
2023-04-18T14:49:04.220Z,100865.97
2023-04-18T14:51:38.282Z,100859.68
2023-04-18T14:54:12.478Z,100872.61
2023-04-18T14:56:46.924Z,100878.59
2023-04-18T14:59:22.660Z,100880.09
2023-04-18T15:01:56.324Z,100884.75
2023-04-18T15:04:31.911Z,100891.91
2023-04-18T15:07:06.549Z,100896.50
2023-04-18T15:09:44.472Z,100895.31
2023-04-18T15:12:18.127Z,100907.45
2023-04-18T15:14:52.828Z,100918.59
2023-04-18T15:17:27.082Z,100930.26
2023-04-18T15:20:01.637Z,100936.20
2023-04-18T15:22:34.992Z,100936.98
2023-04-18T15:25:18.407Z,100938.89
2023-04-18T15:27:49.858Z,100938.63
2023-04-18T15:30:25.804Z,100939.53
2023-04-18T15:32:59.968Z,100937.17
2023-04-18T15:35:33.823Z,100937.70
2023-04-18T15:37:57.795Z,100946.66
2023-04-18T15:40:34.295Z,100951.20
2023-04-18T15:43:08.460Z,100958.45
2023-04-18T15:45:43.621Z,100959.90
2023-04-18T15:48:18.312Z,100963.00
2023-04-18T15:50:59.713Z,100967.48
2023-04-18T15:53:35.012Z,100971.60
2023-04-18T15:56:08.953Z,100974.05
2023-04-18T15:58:43.019Z,100966.31
2023-04-18T16:01:21.707Z,100958.89
2023-04-18T16:03:56.761Z,100961.19
2023-04-18T16:06:32.573Z,100958.45
2023-04-18T16:09:08.394Z,100942.45
2023-04-18T16:11:43.233Z,100947.07
2023-04-18T16:14:17.920Z,100946.59
2023-04-18T16:16:54.840Z,100963.98
2023-04-18T16:19:29.895Z,100985.17
2023-04-18T16:22:04.163Z,100996.84
2023-04-18T16:24:41.544Z,101001.17
2023-04-18T16:27:16.178Z,101000.67
2023-04-18T16:29:52.438Z,101000.49
2023-04-18T16:32:28.630Z,101008.21
2023-04-18T16:35:02.300Z,101008.31
2023-04-18T16:37:39.341Z,101010.09
2023-04-18T16:40:16.428Z,101011.23
2023-04-18T16:45:36.327Z,101009.72
2023-04-18T16:48:12.556Z,101008.29
2023-04-18T16:50:47.749Z,101007.56
2023-04-18T16:53:21.568Z,101016.68
2023-04-18T16:55:57.075Z,101007.66
2023-04-18T16:58:32.119Z,101015.52
2023-04-18T17:01:09.193Z,101026.52
2023-04-18T17:03:45.021Z,101026.23
2023-04-18T17:06:20.914Z,101032.99
2023-04-18T17:08:55.635Z,101038.15
2023-04-18T17:11:33.210Z,101049.31
2023-04-18T17:14:08.882Z,101055.30
2023-04-18T17:16:45.540Z,101039.77
2023-04-18T17:19:20.344Z,101043.80
2023-04-18T17:21:55.873Z,101045.41
2023-04-18T17:24:32.288Z,101037.50
2023-04-18T17:27:09.931Z,101040.98
2023-04-18T17:29:44.912Z,101048.45
2023-04-18T17:32:22.450Z,101047.94
2023-04-18T17:34:57.283Z,101048.95
2023-04-18T17:37:32.434Z,101048.02
2023-04-18T17:40:10.867Z,101035.95
2023-04-18T17:42:45.519Z,101030.55
2023-04-18T17:45:19.247Z,101027.63
2023-04-18T17:47:55.890Z,101025.73
2023-04-18T17:50:29.463Z,101039.92
2023-04-18T17:53:04.090Z,101054.02
2023-04-18T17:55:37.766Z,101051.48
2023-04-18T17:58:12.623Z,101057.00
2023-04-18T18:00:46.856Z,101065.04
2023-04-18T18:03:22.692Z,101067.92
2023-04-18T18:05:57.799Z,101074.23
2023-04-18T18:08:33.470Z,101079.55
2023-04-18T18:11:09.411Z,101081.74
2023-04-18T18:13:32.860Z,101091.30
2023-04-18T18:16:08.385Z,101095.52
2023-04-18T18:18:42.668Z,101095.53
2023-04-18T18:21:15.781Z,101102.20
2023-04-18T18:23:50.131Z,101099.85
2023-04-18T18:26:24.801Z,101099.88
2023-04-18T18:28:59.300Z,101113.02
2023-04-18T18:31:34.433Z,101131.37
2023-04-18T18:34:09.367Z,101141.52
2023-04-18T18:36:43.232Z,101143.85
2023-04-18T18:39:17.468Z,101143.61
2023-04-18T18:41:51.990Z,101134.19
2023-04-18T18:44:26.194Z,101129.81
2023-04-18T18:47:00.730Z,101142.45
2023-04-18T18:52:21.726Z,101167.32
2023-04-18T18:54:54.950Z,101165.85
2023-04-18T18:57:28.760Z,101168.98
2023-04-18T19:00:03.173Z,101189.52
2023-04-18T19:02:37.034Z,101193.52
2023-04-18T19:05:11.838Z,101192.40
2023-04-18T19:07:45.718Z,101196.13
2023-04-18T19:10:19.263Z,101196.50
2023-04-18T19:12:53.970Z,101195.23
2023-04-18T19:15:28.003Z,101189.56
2023-04-18T19:18:02.652Z,101189.77
2023-04-18T19:20:39.867Z,101191.16
2023-04-18T19:23:14.164Z,101176.06
2023-04-18T19:25:48.587Z,101170.98
2023-04-18T19:28:23.720Z,101169.86
2023-04-18T19:30:58.451Z,101165.44
2023-04-18T19:33:33.661Z,101176.38
2023-04-18T19:36:09.240Z,101173.58
2023-04-18T19:38:42.851Z,101176.91
2023-04-18T19:41:17.315Z,101181.52
2023-04-18T19:43:53.362Z,101185.14
2023-04-18T19:46:27.473Z,101188.11
2023-04-18T19:49:01.822Z,101196.09
2023-04-18T19:51:36.957Z,101204.15
2023-04-18T19:54:10.932Z,101218.89
2023-04-18T19:56:35.606Z,101230.17
2023-04-18T19:59:12.907Z,101220.25
2023-04-18T20:01:48.720Z,101206.70
2023-04-18T20:04:23.313Z,101216.02
2023-04-18T20:06:58.678Z,101248.04
2023-04-18T20:09:33.240Z,101264.63
2023-04-18T20:12:06.376Z,101274.39
2023-04-18T20:14:41.032Z,101279.66
2023-04-18T20:17:14.329Z,101259.12
2023-04-18T20:19:48.239Z,101265.50
2023-04-18T20:22:21.827Z,101255.05
2023-04-18T20:24:58.189Z,101246.23
2023-04-18T20:27:33.973Z,101251.91
2023-04-18T20:30:09.610Z,101255.17
2023-04-18T20:32:45.313Z,101249.37
2023-04-18T20:35:24.341Z,101249.48
2023-04-18T20:38:01.360Z,101262.58
2023-04-18T20:40:37.140Z,101255.73
2023-04-18T20:43:11.362Z,101257.88
2023-04-18T20:45:48.325Z,101259.93
2023-04-18T20:48:23.137Z,101261.23
2023-04-18T20:50:57.068Z,101271.95
2023-04-18T20:53:30.976Z,101272.48
2023-04-18T20:56:07.470Z,101258.01
2023-04-18T20:58:40.498Z,101253.93
2023-04-18T21:01:11.547Z,101238.96
2023-04-18T21:03:47.348Z,101247.27
2023-04-18T21:06:23.218Z,101250.20
2023-04-18T21:08:56.772Z,101238.70
2023-04-18T21:11:30.541Z,101248.38
2023-04-18T21:14:04.907Z,101271.05
2023-04-18T21:16:40.478Z,101267.39
2023-04-18T21:19:13.977Z,101264.11
2023-04-18T21:21:47.350Z,101257.88
2023-04-18T21:24:21.088Z,101248.40
2023-04-18T21:26:44.246Z,101246.54
2023-04-18T21:29:18.749Z,101246.73
2023-04-18T21:31:42.825Z,101259.67
2023-04-18T21:33:59.493Z,101262.09
2023-04-18T21:36:22.429Z,101267.61
2023-04-18T21:38:57.593Z,101258.75
2023-04-18T21:41:13.730Z,101279.97
2023-04-18T21:43:47.300Z,101301.01
2023-04-18T21:46:22.051Z,101308.70
2023-04-18T21:48:42.466Z,101309.48
2023-04-18T21:51:05.795Z,101315.48
2023-04-18T21:53:29.238Z,101310.35
2023-04-18T21:56:02.909Z,101307.95
2023-04-18T21:58:29.697Z,101299.30
2023-04-18T22:00:46.218Z,101302.66
2023-04-18T22:05:36.248Z,101293.64
2023-04-18T22:07:58.055Z,101293.77
2023-04-18T22:10:17.764Z,101290.99
2023-04-18T22:12:43.556Z,101286.90
2023-04-18T22:14:59.929Z,101287.45
2023-04-18T22:17:16.017Z,101284.83
2023-04-18T22:19:30.704Z,101282.22
2023-04-18T22:22:04.805Z,101269.99
2023-04-18T22:24:19.483Z,101262.42
2023-04-18T22:26:43.019Z,101258.92
2023-04-18T22:29:17.357Z,101260.80
2023-04-18T22:31:52.014Z,101260.56
2023-04-18T22:34:10.768Z,101259.93
2023-04-18T22:36:34.140Z,101262.23
2023-04-18T22:39:08.581Z,101264.30
2023-04-18T22:41:41.471Z,101267.09
2023-04-18T22:44:15.587Z,101264.75
2023-04-18T22:46:49.235Z,101267.84
2023-04-18T22:49:23.284Z,101271.25
2023-04-18T22:51:56.984Z,101272.27
2023-04-18T22:54:34.518Z,101278.89
2023-04-18T22:57:08.270Z,101276.83
2023-04-18T22:59:42.248Z,101278.36
2023-04-18T23:02:16.353Z,101275.59
2023-04-18T23:04:50.695Z,101272.07
2023-04-18T23:07:14.336Z,101275.40
2023-04-18T23:09:48.612Z,101274.30
2023-04-18T23:12:22.472Z,101277.52
2023-04-18T23:14:56.442Z,101284.27
2023-04-18T23:17:30.434Z,101299.62
2023-04-18T23:20:05.745Z,101298.61
2023-04-18T23:22:40.884Z,101326.14
2023-04-18T23:25:16.098Z,101335.98
2023-04-18T23:27:50.152Z,101336.90
2023-04-18T23:30:25.417Z,101331.61
2023-04-18T23:32:58.726Z,101325.77
2023-04-18T23:35:34.530Z,101330.72
2023-04-18T23:38:09.275Z,101330.67
2023-04-18T23:43:30.616Z,101332.20
2023-04-18T23:46:04.654Z,101334.98
2023-04-18T23:51:25.759Z,101330.85
2023-04-18T23:53:59.725Z,101324.06
2023-04-18T23:56:33.850Z,101316.73
2023-04-18T23:59:08.730Z,101310.70
